Time;durP1;ratioP1;P1;durP2;ratioP2;P2;SDS_P1;SDS_P2;PMS_P1;PMS_P2;Temp;Humidity;BMP_temperature;BMP_pressure;BME280_temperature;BME280_humidity;BME280_pressure;Samples;Min_cycle;Max_cycle;Signal;HPM_P1;HPM_P2
2023/10/07 00:00:59;;;;;;;8.50;5.20;;;282.50;2278.40;;;;;;5058251;28;20025;-59
2023/10/07 00:03:25;;;;;;;10.27;5.32;;;282.50;2278.40;;;;;;5059492;28;20055;-60
2023/10/07 00:06:00;;;;;;;9.75;5.72;;;282.50;2278.40;;;;;;5057387;28;20505;-60
2023/10/07 00:08:27;;;;;;;8.88;5.10;;;282.50;2278.40;;;;;;5060096;28;20036;-60
2023/10/07 00:10:58;;;;;;;10.57;6.25;;;282.40;2278.40;;;;;;5057420;28;20032;-60
2023/10/07 00:13:26;;;;;;;9.20;5.03;;;282.40;2278.40;;;;;;5058061;28;20095;-61
2023/10/07 00:15:53;;;;;;;12.55;5.15;;;282.30;2278.40;;;;;;5059255;28;20058;-61
2023/10/07 00:18:19;;;;;;;10.68;5.03;;;282.30;2278.40;;;;;;5058353;28;20075;-61
2023/10/07 00:20:54;;;;;;;11.63;5.18;;;282.30;2278.40;;;;;;5056867;28;20045;-60
2023/10/07 00:23:22;;;;;;;10.63;6.05;;;282.30;2278.40;;;;;;5053840;28;20089;-60
2023/10/07 00:25:52;;;;;;;9.65;5.97;;;282.30;2278.40;;;;;;5068874;28;20108;-60
2023/10/07 00:28:28;;;;;;;7.68;5.40;;;282.30;2278.40;;;;;;5068912;28;20033;-60
2023/10/07 00:30:55;;;;;;;10.30;6.03;;;282.30;2278.40;;;;;;5068949;28;20029;-60
2023/10/07 00:33:22;;;;;;;9.10;4.95;;;282.20;2278.40;;;;;;5068761;28;20025;-60
2023/10/07 00:35:53;;;;;;;8.15;5.35;;;282.20;2278.40;;;;;;5068916;28;20383;-60
2023/10/07 00:38:23;;;;;;;7.60;5.13;;;282.20;2278.40;;;;;;5068992;28;20511;-60
2023/10/07 00:40:53;;;;;;;12.43;5.68;;;282.20;2278.40;;;;;;5068521;28;20042;-60
2023/10/07 00:43:26;;;;;;;10.25;5.63;;;282.20;2278.40;;;;;;5068477;28;20027;-59
2023/10/07 00:45:59;;;;;;;;;;;282.20;2278.40;;;;;;5069139;28;20032;-60
2023/10/07 00:48:42;;;;;;;11.15;6.30;;;282.20;2278.40;;;;;;5068641;28;19915;-60
2023/10/07 00:51:11;;;;;;;9.13;5.35;;;282.10;2278.40;;;;;;5068739;28;20052;-60
2023/10/07 00:53:45;;;;;;;13.80;6.10;;;282.10;2278.40;;;;;;5068717;28;20111;-60
2023/10/07 00:56:15;;;;;;;7.53;4.85;;;282.00;2278.40;;;;;;5068419;28;20070;-60
2023/10/07 00:58:42;;;;;;;10.85;4.95;;;282.00;2278.40;;;;;;5068472;28;20087;-60
2023/10/07 01:01:12;;;;;;;7.43;5.45;;;282.00;2278.40;;;;;;5068524;28;20028;-61
2023/10/07 01:03:47;;;;;;;18.05;6.43;;;282.10;2278.40;;;;;;5068413;28;20029;-60
2023/10/07 01:06:26;;;;;;;9.60;5.55;;;282.10;2278.40;;;;;;5068511;28;20017;-60
2023/10/07 01:08:58;;;;;;;10.32;5.60;;;282.00;2278.40;;;;;;5068512;28;20111;-60
2023/10/07 01:11:29;;;;;;;10.02;4.85;;;282.00;2278.40;;;;;;5068630;28;20048;-60
2023/10/07 01:14:00;;;;;;;10.23;4.90;;;282.00;2278.40;;;;;;5068628;28;20475;-59
2023/10/07 01:19:27;;;;;;;8.40;5.33;;;281.90;2278.40;;;;;;5068477;28;20107;-59
2023/10/07 01:21:53;;;;;;;13.93;5.30;;;281.90;2278.40;;;;;;5067858;28;20288;-60
2023/10/07 01:24:33;;;;;;;10.85;5.70;;;281.90;2278.40;;;;;;5068099;28;20053;-60
2023/10/07 01:27:05;;;;;;;10.43;5.70;;;281.80;2278.40;;;;;;5068074;28;20025;-60
2023/10/07 01:29:32;;;;;;;9.38;6.05;;;281.80;2278.40;;;;;;5068214;28;20439;-60
2023/10/07 01:32:04;;;;;;;7.43;5.20;;;281.80;2278.40;;;;;;5070357;28;20055;-60
2023/10/07 01:34:30;;;;;;;7.65;5.15;;;281.80;2278.40;;;;;;5071882;28;20033;-60
2023/10/07 01:37:00;;;;;;;8.65;5.35;;;281.80;2278.40;;;;;;5071854;28;20030;-61
2023/10/07 01:39:40;;;;;;;12.45;5.47;;;281.80;2278.40;;;;;;5071727;28;20665;-61
2023/10/07 01:42:07;;;;;;;9.57;5.40;;;281.80;2278.40;;;;;;5071872;28;20027;-61
2023/10/07 01:44:38;;;;;;;10.77;5.43;;;281.80;2278.40;;;;;;5071896;28;20429;-60
2023/10/07 01:47:12;;;;;;;9.77;5.22;;;281.80;2278.40;;;;;;5071657;28;20032;-59
2023/10/07 01:49:39;;;;;;;11.18;6.57;;;281.70;2278.40;;;;;;5071722;28;20036;-60
2023/10/07 01:52:05;;;;;;;8.52;5.53;;;281.70;2278.40;;;;;;5071912;28;20051;-60
2023/10/07 01:54:33;;;;;;;14.43;5.90;;;281.70;2278.40;;;;;;5071880;28;20510;-60
2023/10/07 01:57:04;;;;;;;8.55;4.70;;;281.70;2278.40;;;;;;5071450;28;20021;-61
2023/10/07 01:59:30;;;;;;;9.95;5.22;;;281.70;2278.40;;;;;;5071491;28;20107;-59
2023/10/07 02:02:06;;;;;;;13.50;6.13;;;281.70;2278.40;;;;;;5071655;28;20052;-60
2023/10/07 02:04:32;;;;;;;12.63;5.55;;;281.70;2278.40;;;;;;5071642;28;20104;-60
2023/10/07 02:06:58;;;;;;;12.20;6.72;;;281.70;2278.40;;;;;;5071552;28;20029;-59
2023/10/07 02:09:25;;;;;;;7.85;5.05;;;281.70;2278.40;;;;;;5071582;28;20020;-59
2023/10/07 02:11:53;;;;;;;10.40;5.40;;;281.70;2278.40;;;;;;5071199;28;20100;-59
2023/10/07 02:14:25;;;;;;;10.38;6.45;;;281.70;2278.40;;;;;;5071411;28;20024;-60
2023/10/07 02:16:56;;;;;;;9.23;6.43;;;281.60;2278.40;;;;;;5071391;28;20123;-60
2023/10/07 02:19:29;;;;;;;8.45;5.78;;;281.60;2278.40;;;;;;5071544;28;20093;-61
2023/10/07 02:22:07;;;;;;;12.05;5.70;;;281.60;2278.40;;;;;;5071173;28;20395;-61
2023/10/07 02:24:34;;;;;;;12.23;5.45;;;281.60;2278.40;;;;;;5071437;28;20021;-61
2023/10/07 02:27:06;;;;;;;9.52;4.90;;;281.60;2278.40;;;;;;5070766;28;20021;-60
2023/10/07 02:29:32;;;;;;;14.10;6.15;;;281.60;2278.40;;;;;;5070908;28;20043;-61
2023/10/07 02:32:14;;;;;;;15.13;6.35;;;281.60;2278.40;;;;;;5070975;28;20024;-61
2023/10/07 02:34:54;;;;;;;9.63;5.50;;;281.60;2278.40;;;;;;5070891;28;20040;-60
2023/10/07 02:37:25;;;;;;;13.00;5.95;;;281.60;2278.40;;;;;;5070831;28;20542;-61
2023/10/07 02:40:17;;;;;;;10.07;5.50;;;256.90;2252.80;;;;;;5071015;28;20025;-60
2023/10/07 02:42:46;;;;;;;11.55;6.30;;;256.90;2252.80;;;;;;5070048;28;20055;-60
2023/10/07 02:47:50;;;;;;;10.07;5.60;;;281.60;2278.40;;;;;;5070592;28;20027;-60
2023/10/07 02:50:19;;;;;;;9.88;6.38;;;281.60;2278.40;;;;;;5070715;28;20045;-61
2023/10/07 02:52:49;;;;;;;11.10;6.55;;;281.70;2278.40;;;;;;5070992;28;20043;-59
2023/10/07 02:58:05;;;;;;;10.00;6.45;;;281.60;2278.40;;;;;;5028399;28;20074;-60
2023/10/07 03:00:36;;;;;;;11.70;6.70;;;281.60;2278.40;;;;;;5028159;28;20041;-60
2023/10/07 03:06:09;;;;;;;8.63;6.07;;;256.90;2252.80;;;;;;4969578;28;20165;-60
2023/10/07 03:08:47;;;;;;;10.30;5.65;;;256.80;2252.80;;;;;;4969225;28;20035;-60
2023/10/07 03:11:21;;;;;;;8.52;5.95;;;256.80;2252.80;;;;;;4969333;28;20606;-60
2023/10/07 03:13:49;;;;;;;7.20;5.03;;;256.80;2252.80;;;;;;4969187;28;20488;-61
2023/10/07 03:19:20;;;;;;;10.35;5.82;;;256.80;2252.80;;;;;;4969240;28;20042;-60
2023/10/07 03:24:14;;;;;;;9.73;6.47;;;256.80;2252.80;;;;;;4969056;28;20093;-61
2023/10/07 03:26:43;;;;;;;10.30;6.47;;;256.70;2252.80;;;;;;4968900;28;20046;-60
2023/10/07 03:29:10;;;;;;;16.20;6.85;;;256.70;2252.80;;;;;;4968643;28;20135;-59
2023/10/07 03:31:47;;;;;;;14.02;6.78;;;256.60;2252.80;;;;;;4969188;28;20061;-59
2023/10/07 03:34:14;;;;;;;9.65;6.60;;;256.60;2252.80;;;;;;4974646;28;20400;-59
2023/10/07 03:39:42;;;;;;;10.35;5.63;;;256.40;2252.80;;;;;;5017883;28;20102;-59
2023/10/07 03:42:09;;;;;;;8.90;6.20;;;256.30;2252.80;;;;;;5049336;28;20029;-60
2023/10/07 03:44:37;;;;;;;9.15;6.15;;;256.30;2252.80;;;;;;5049518;28;20086;-59
2023/10/07 03:47:03;;;;;;;12.88;6.10;;;256.40;2252.80;;;;;;5049525;28;20024;-59
2023/10/07 03:49:39;;;;;;;8.02;5.35;;;256.40;2252.80;;;;;;5049347;28;20170;-59
2023/10/07 03:52:19;;;;;;;9.73;6.22;;;256.40;2252.80;;;;;;5049473;28;20032;-60
2023/10/07 03:54:47;;;;;;;9.48;6.50;;;256.50;2252.80;;;;;;5049236;28;20434;-59
2023/10/07 03:57:15;;;;;;;9.43;6.20;;;256.40;2252.80;;;;;;5049679;28;20052;-60
2023/10/07 03:59:41;;;;;;;12.80;6.75;;;256.40;2252.80;;;;;;5049630;28;20033;-60
2023/10/07 04:04:59;;;;;;;15.07;7.10;;;256.30;2252.80;;;;;;5069543;28;20031;-59
2023/10/07 04:07:27;;;;;;;13.10;7.65;;;256.30;2252.80;;;;;;5069249;28;20052;-60
2023/10/07 04:09:53;;;;;;;11.00;6.60;;;256.30;2252.80;;;;;;5069155;28;20045;-60
2023/10/07 04:12:19;;;;;;;9.85;5.72;;;256.20;2252.80;;;;;;5069484;28;20055;-60
2023/10/07 04:14:45;;;;;;;8.05;5.97;;;256.10;2252.80;;;;;;5069268;28;20048;-60
2023/10/07 04:17:13;;;;;;;13.05;6.88;;;256.10;2252.80;;;;;;5069094;28;20040;-60
2023/10/07 04:19:42;;;;;;;12.60;7.93;;;256.00;2252.80;;;;;;5068816;28;20025;-59
2023/10/07 04:22:11;;;;;;;32.22;6.60;;;256.10;2252.80;;;;;;5069011;28;20470;-60
2023/10/07 04:24:44;;;;;;;14.98;7.75;;;256.00;2252.80;;;;;;5069007;28;20017;-60
2023/10/07 04:27:18;;;;;;;12.65;7.57;;;231.30;2252.80;;;;;;5068737;28;20024;-60
2023/10/07 04:29:45;;;;;;;16.90;7.13;;;231.30;2252.80;;;;;;5068982;28;20029;-61
2023/10/07 04:32:19;;;;;;;12.23;7.40;;;256.00;2252.80;;;;;;5069156;28;20028;-60
2023/10/07 04:35:06;;;;;;;15.23;6.75;;;256.00;2252.80;;;;;;5068859;28;20162;-61
2023/10/07 04:37:47;;;;;;;12.95;7.65;;;256.10;2252.80;;;;;;5068854;28;20028;-61
2023/10/07 04:45:37;;;;;;;7.05;5.22;;;256.00;2252.80;;;;;;5068609;28;20032;-61
2023/10/07 04:48:31;;;;;;;13.38;5.53;;;256.00;2252.80;;;;;;5069087;28;20032;-60
2023/10/07 04:51:07;;;;;;;9.65;5.95;;;231.30;2252.80;;;;;;5068478;28;20502;-60
2023/10/07 04:53:39;;;;;;;10.30;6.40;;;231.20;2252.80;;;;;;5068682;28;20035;-60
2023/10/07 04:56:20;;;;;;;11.73;5.50;;;231.30;2252.80;;;;;;5068808;28;20021;-61
2023/10/07 04:58:47;;;;;;;11.43;5.78;;;231.30;2252.80;;;;;;5068737;28;20028;-60
2023/10/07 05:01:30;;;;;;;11.77;6.63;;;231.30;2252.80;;;;;;5068840;28;20044;-60
2023/10/07 05:03:58;;;;;;;9.75;6.30;;;231.30;2252.80;;;;;;5068681;28;20110;-60
2023/10/07 05:06:26;;;;;;;14.45;6.20;;;256.00;2252.80;;;;;;5070356;28;20032;-60
2023/10/07 05:08:52;;;;;;;9.88;5.70;;;256.00;2252.80;;;;;;5072711;28;20029;-60
2023/10/07 05:11:18;;;;;;;10.00;6.20;;;256.10;2252.80;;;;;;5072513;28;20085;-60
2023/10/07 05:13:47;;;;;;;10.38;6.00;;;256.10;2252.80;;;;;;5072417;28;20055;-60
2023/10/07 05:16:14;;;;;;;10.05;6.22;;;256.10;2252.80;;;;;;5072174;28;20086;-60
2023/10/07 05:18:41;;;;;;;10.30;6.20;;;256.20;2252.80;;;;;;5072555;28;20423;-60
2023/10/07 05:21:07;;;;;;;8.63;5.82;;;256.30;2252.80;;;;;;5072106;28;20049;-60
2023/10/07 05:23:34;;;;;;;12.55;6.50;;;256.40;2252.80;;;;;;5072561;28;20545;-60
2023/10/07 05:26:08;;;;;;;16.63;6.53;;;256.50;2252.80;;;;;;5072159;28;20419;-61
2023/10/07 05:28:35;;;;;;;12.73;6.88;;;256.50;2252.80;;;;;;5072405;28;20097;-60
2023/10/07 05:31:03;;;;;;;11.35;6.10;;;256.70;2252.80;;;;;;5071773;28;20094;-59
2023/10/07 05:33:34;;;;;;;10.15;6.30;;;256.70;2252.80;;;;;;5071881;28;20016;-61
2023/10/07 05:36:14;;;;;;;15.95;7.13;;;256.90;2252.80;;;;;;5071871;28;20028;-60
2023/10/07 05:38:40;;;;;;;10.60;7.65;;;256.90;2252.80;;;;;;5071889;28;20086;-60
2023/10/07 05:41:12;;;;;;;13.10;6.88;;;256.90;2252.80;;;;;;5071701;28;20115;-62
2023/10/07 05:43:44;;;;;;;10.88;6.65;;;256.90;2252.80;;;;;;5071752;28;20522;-60
2023/10/07 05:46:13;;;;;;;9.05;6.22;;;256.90;2252.80;;;;;;5071413;28;20020;-60
2023/10/07 05:48:40;;;;;;;13.55;6.55;;;281.60;2278.40;;;;;;5071606;28;20035;-60
2023/10/07 05:51:09;;;;;;;11.40;6.45;;;281.70;2278.40;;;;;;5071827;28;20047;-60
2023/10/07 05:53:39;;;;;;;11.57;6.32;;;281.80;2278.40;;;;;;5071445;28;20404;-59
2023/10/07 05:56:06;;;;;;;14.35;6.25;;;281.90;2278.40;;;;;;5071853;28;20056;-61
2023/10/07 05:58:37;;;;;;;11.95;7.32;;;282.00;2278.40;;;;;;5071428;28;20028;-60
2023/10/07 06:01:08;;;;;;;12.18;7.07;;;282.00;2278.40;;;;;;5071436;28;20030;-60
2023/10/07 06:03:34;;;;;;;11.45;7.75;;;282.00;2278.40;;;;;;5071413;28;20390;-60
2023/10/07 06:06:04;;;;;;;8.52;6.93;;;307.60;2304.00;;;;;;5070249;28;20020;-58
2023/10/07 06:08:32;;;;;;;10.57;6.60;;;359.20;2329.60;;;;;;5063208;28;20033;-59
2023/10/07 06:10:59;;;;;;;10.30;6.95;;;409.90;2355.20;;;;;;5054096;28;20041;-61
2023/10/07 06:13:26;;;;;;;5.72;4.85;;;435.70;2355.20;;;;;;5067151;28;20035;-61
2023/10/07 06:15:57;;;;;;;11.80;6.18;;;461.10;2380.80;;;;;;5067778;28;20084;-61
2023/10/07 06:18:23;;;;;;;8.48;6.28;;;487.20;2355.20;;;;;;5066414;28;20036;-61
2023/10/07 06:20:51;;;;;;;11.25;7.22;;;538.20;2176.00;;;;;;5070985;28;20056;-59
2023/10/07 06:23:24;;;;;;;9.48;7.32;;;588.80;2022.40;;;;;;5071163;28;20089;-62
2023/10/07 06:25:51;;;;;;;9.55;7.15;;;589.70;1920.00;;;;;;5064726;28;20560;-59
2023/10/07 06:28:35;;;;;;;12.65;7.88;;;640.30;1792.00;;;;;;5068381;28;20064;-61
2023/10/07 06:31:11;;;;;;;16.33;10.05;;;665.60;1740.80;;;;;;5070183;28;20070;-60
2023/10/07 06:33:39;;;;;;;13.15;11.60;;;640.70;1715.20;;;;;;5070912;28;20417;-61
2023/10/07 06:36:07;;;;;;;17.42;12.73;;;640.80;1689.60;;;;;;5071078;28;20025;-61
2023/10/07 06:38:33;;;;;;;15.55;13.88;;;640.10;1715.20;;;;;;5070928;28;20144;-61
2023/10/07 06:40:59;;;;;;;15.52;12.52;;;640.90;1689.60;;;;;;5070982;28;20028;-61
2023/10/07 06:43:25;;;;;;;15.63;12.55;;;666.10;1664.00;;;;;;5060796;28;20025;-60
2023/10/07 06:45:54;;;;;;;14.30;12.02;;;691.90;1587.20;;;;;;5053450;28;20052;-61
2023/10/07 06:48:24;;;;;;;13.15;11.25;;;717.60;1561.60;;;;;;5069880;28;20029;-59
2023/10/07 06:50:53;;;;;;;10.25;9.20;;;742.80;1536.00;;;;;;5070292;28;20560;-61
2023/10/07 06:53:22;;;;;;;10.43;9.07;;;743.00;1510.40;;;;;;5052359;28;20361;-61
2023/10/07 06:55:52;;;;;;;10.63;9.10;;;768.60;1459.20;;;;;;5051037;28;20033;-62
2023/10/07 06:58:22;;;;;;;15.50;14.00;;;793.60;1459.20;;;;;;5050507;28;20025;-62
2023/10/07 07:00:56;;;;;;;12.75;10.25;;;794.20;1408.00;;;;;;5050356;28;20028;-62
2023/10/07 07:03:25;;;;;;;10.98;9.82;;;793.70;1433.60;;;;;;5050740;28;20120;-62
2023/10/07 07:05:52;;;;;;;11.32;9.70;;;793.70;1433.60;;;;;;5050981;28;20082;-62
2023/10/07 07:08:22;;;;;;;16.35;14.73;;;819.40;1382.40;;;;;;5061382;28;20112;-62
2023/10/07 07:10:50;;;;;;;11.55;10.52;;;844.80;1382.40;;;;;;5057858;28;20048;-61
2023/10/07 07:13:22;;;;;;;26.95;12.27;;;845.50;1331.20;;;;;;5062216;28;20857;-63
2023/10/07 07:15:57;;;;;;;11.48;10.07;;;870.70;1305.60;;;;;;5055736;28;20032;-62
2023/10/07 07:18:25;;;;;;;11.50;9.73;;;871.20;1280.00;;;;;;5060791;28;20757;-63
2023/10/07 07:23:32;;;;;;;14.25;12.75;;;896.50;1228.80;;;;;;5056535;28;20218;-62
2023/10/07 07:28:27;;;;;;;15.48;13.95;;;921.60;1228.80;;;;;;5059783;28;20027;-62
2023/10/07 07:30:57;;;;;;;13.65;12.35;;;921.80;1228.80;;;;;;5057209;28;20040;-62
2023/10/07 07:33:28;;;;;;;13.02;11.80;;;922.30;1177.60;;;;;;5058259;28;20021;-62
2023/10/07 07:35:57;;;;;;;10.55;9.55;;;947.20;1177.60;;;;;;5059350;28;20434;-62
2023/10/07 07:38:29;;;;;;;10.85;9.75;;;922.10;1177.60;;;;;;5055627;28;20100;-63
2023/10/07 07:41:06;;;;;;;18.17;10.57;;;921.90;1203.20;;;;;;5052969;28;20041;-62
2023/10/07 07:43:36;;;;;;;15.20;11.40;;;947.30;1152.00;;;;;;5063425;28;20032;-63
2023/10/07 07:46:18;;;;;;;14.85;11.80;;;947.30;1152.00;;;;;;5049104;28;20025;-62
2023/10/07 07:48:48;;;;;;;13.07;11.77;;;921.80;1177.60;;;;;;5048607;28;20043;-63
2023/10/07 07:51:17;;;;;;;15.25;11.57;;;947.40;1152.00;;;;;;5048203;28;20467;-63
2023/10/07 07:53:46;;;;;;;20.27;18.48;;;947.80;1126.40;;;;;;5048236;28;20029;-62
2023/10/07 07:56:15;;;;;;;19.15;16.88;;;973.30;1126.40;;;;;;5048589;28;20036;-62
2023/10/07 07:58:46;;;;;;;29.25;16.58;;;947.40;1152.00;;;;;;5048055;28;20104;-62
2023/10/07 08:01:18;;;;;;;14.68;13.27;;;947.90;1126.40;;;;;;5049696;28;20032;-63
2023/10/07 08:03:44;;;;;;;16.00;14.30;;;947.40;1152.00;;;;;;5058804;28;20052;-62
2023/10/07 08:06:19;;;;;;;14.90;13.45;;;947.60;1152.00;;;;;;5051600;28;20029;-63
2023/10/07 08:08:49;;;;;;;14.52;13.07;;;947.80;1100.80;;;;;;5048007;28;20146;-62
2023/10/07 08:11:17;;;;;;;13.27;12.07;;;947.20;1126.40;;;;;;5047667;28;20101;-62
2023/10/07 08:13:45;;;;;;;14.07;12.35;;;947.40;1100.80;;;;;;5047791;28;20020;-62
2023/10/07 08:16:17;;;;;;;14.40;13.00;;;947.20;1126.40;;;;;;5047869;28;20036;-62
2023/10/07 08:18:44;;;;;;;17.20;15.65;;;973.20;1126.40;;;;;;5047807;28;20434;-62
2023/10/07 08:21:13;;;;;;;15.25;13.85;;;973.20;1126.40;;;;;;5047464;28;20048;-63
2023/10/07 08:23:47;;;;;;;16.73;14.55;;;973.20;1100.80;;;;;;5047225;28;20498;-62
2023/10/07 08:26:20;;;;;;;17.00;15.15;;;973.20;1100.80;;;;;;5047726;28;20021;-63
2023/10/07 08:28:47;;;;;;;18.80;16.90;;;973.70;1075.20;;;;;;5047664;28;20029;-63
2023/10/07 08:31:20;;;;;;;19.13;14.95;;;973.50;1100.80;;;;;;5052695;28;20382;-62
2023/10/07 08:34:09;;;;;;;18.33;15.65;;;998.40;1100.80;;;;;;5062238;28;20031;-62
2023/10/07 08:36:47;;;;;;;16.52;14.52;;;998.70;1075.20;;;;;;5067238;28;20032;-61
2023/10/07 08:39:17;;;;;;;15.95;13.10;;;998.40;1075.20;;;;;;5067664;28;20021;-62
2023/10/07 08:41:47;;;;;;;10.88;9.73;;;948.10;1049.60;;;;;;5063500;28;20413;-62
2023/10/07 08:44:14;;;;;;;11.57;9.45;;;973.20;1049.60;;;;;;5053009;28;20029;-62
2023/10/07 08:46:52;;;;;;;13.48;9.68;;;973.00;1024.00;;;;;;5047210;28;20509;-62
2023/10/07 08:49:25;;;;;;;12.30;10.90;;;947.40;1075.20;;;;;;5047085;28;20033;-62
2023/10/07 08:51:56;;;;;;;10.73;9.73;;;871.20;1152.00;;;;;;5047793;28;20410;-61
2023/10/07 08:54:31;;;;;;;11.10;10.00;;;921.80;1126.40;;;;;;5047257;28;20021;-62
2023/10/07 08:57:14;;;;;;;12.43;9.50;;;871.10;1152.00;;;;;;5049881;28;20499;-62
2023/10/07 08:59:42;;;;;;;12.60;10.20;;;845.20;1228.80;;;;;;5055175;28;20028;-61
2023/10/07 09:02:23;;;;;;;13.05;11.20;;;819.70;1203.20;;;;;;5065921;28;20028;-62
2023/10/07 09:04:49;;;;;;;12.60;8.77;;;794.20;1280.00;;;;;;5067267;28;20032;-61
2023/10/07 09:07:18;;;;;;;13.57;7.60;;;743.00;1331.20;;;;;;5067405;28;20036;-61
2023/10/07 09:09:43;;;;;;;14.13;8.68;;;717.40;1382.40;;;;;;5066922;28;20047;-61
2023/10/07 09:12:18;;;;;;;11.68;7.72;;;691.90;1382.40;;;;;;5067119;28;20467;-60
2023/10/07 09:17:23;;;;;;;9.05;6.38;;;666.00;1459.20;;;;;;5066670;28;20413;-62
2023/10/07 09:19:52;;;;;;;9.67;6.53;;;640.90;1433.60;;;;;;5066792;28;20521;-61
2023/10/07 09:22:25;;;;;;;9.57;6.30;;;665.70;1459.20;;;;;;5067144;28;20020;-61
2023/10/07 09:25:01;;;;;;;12.53;7.70;;;640.90;1484.80;;;;;;5066605;28;20033;-61
2023/10/07 09:27:37;;;;;;;10.35;6.60;;;665.60;1484.80;;;;;;5067924;28;20035;-61
2023/10/07 09:30:13;;;;;;;13.15;6.75;;;640.40;1484.80;;;;;;5063533;28;20390;-63
2023/10/07 09:32:39;;;;;;;13.73;7.00;;;640.20;1510.40;;;;;;5052183;28;20025;-61
2023/10/07 09:35:19;;;;;;;9.30;6.10;;;640.00;1459.20;;;;;;5048292;28;20055;-61
2023/10/07 09:37:46;;;;;;;9.63;6.28;;;640.00;1433.60;;;;;;5048587;28;20155;-61
2023/10/07 09:41:07;;;;;;;9.60;6.38;;;640.40;1459.20;;;;;;5048569;28;20024;-61
2023/10/07 09:43:26;;;;;;;11.50;7.40;;;640.20;1459.20;;;;;;5048264;28;20163;-61
2023/10/07 09:45:53;;;;;;;9.88;6.30;;;640.30;1408.00;;;;;;5048230;28;20083;-61
2023/10/07 09:48:33;;;;;;;10.00;6.20;;;615.00;1433.60;;;;;;5052130;28;20369;-61
2023/10/07 09:51:00;;;;;;;7.60;5.13;;;615.20;1484.80;;;;;;5047748;28;20068;-61
2023/10/07 09:53:35;;;;;;;13.60;5.70;;;615.20;1433.60;;;;;;5059070;28;20025;-61
2023/10/07 09:56:32;;;;;;;10.50;6.10;;;640.00;1433.60;;;;;;5056970;28;20160;-61
2023/10/07 09:59:18;;;;;;;9.23;5.32;;;640.20;1408.00;;;;;;5051871;28;20025;-60
2023/10/07 10:02:25;;;;;;;9.65;6.68;;;615.20;1408.00;;;;;;5051643;28;20108;-61
2023/10/07 10:05:25;;;;;;;11.18;5.07;;;615.10;1408.00;;;;;;5051630;28;20524;-61
2023/10/07 10:08:27;;;;;;;8.52;4.82;;;614.70;1433.60;;;;;;5051650;28;20484;-61
2023/10/07 10:10:58;;;;;;;11.25;5.95;;;614.70;1433.60;;;;;;5051798;28;20068;-61
2023/10/07 10:16:12;;;;;;;8.65;5.47;;;614.60;1408.00;;;;;;5056473;28;20023;-61
2023/10/07 10:18:43;;;;;;;10.05;5.68;;;;;;;;;;5067631;28;20501;-60
2023/10/07 10:21:11;;;;;;;8.57;4.97;;;;;;;;;;5071271;28;20056;-61
2023/10/07 10:23:40;;;;;;;9.10;5.13;;;589.70;1408.00;;;;;;5064129;28;20031;-61
2023/10/07 10:26:20;;;;;;;9.40;5.18;;;589.30;1408.00;;;;;;5051795;28;20083;-61
2023/10/07 10:29:00;;;;;;;8.48;5.35;;;589.70;1408.00;;;;;;5051749;28;20020;-61
2023/10/07 10:31:34;;;;;;;8.57;4.85;;;614.50;1408.00;;;;;;5051458;28;20098;-61
2023/10/07 10:34:05;;;;;;;8.02;5.07;;;614.40;1382.40;;;;;;5049141;28;20041;-61
2023/10/07 10:36:40;;;;;;;7.60;4.80;;;589.50;1408.00;;;;;;5049840;28;20052;-61
2023/10/07 10:39:26;;;;;;;15.85;6.07;;;589.40;1408.00;;;;;;5049729;28;20028;-60
2023/10/07 10:41:55;;;;;;;8.95;5.05;;;589.60;1433.60;;;;;;5049235;28;20048;-61
2023/10/07 10:44:21;;;;;;;7.43;5.22;;;589.50;1433.60;;;;;;5049158;28;20025;-60
2023/10/07 10:46:49;;;;;;;8.07;5.10;;;589.50;1433.60;;;;;;5048921;28;20116;-61
2023/10/07 10:49:20;;;;;;;8.95;5.63;;;589.50;1408.00;;;;;;5049365;28;20403;-60
2023/10/07 10:51:54;;;;;;;7.00;4.70;;;589.50;1433.60;;;;;;5049611;28;20360;-61
2023/10/07 10:54:22;;;;;;;9.68;5.53;;;589.70;1433.60;;;;;;5049227;28;20025;-60
2023/10/07 10:56:49;;;;;;;9.15;5.18;;;589.70;1484.80;;;;;;5049211;28;20032;-61
2023/10/07 10:59:18;;;;;;;9.23;6.18;;;589.60;1459.20;;;;;;5048436;28;20025;-61
2023/10/07 11:01:49;;;;;;;11.38;5.47;;;589.40;1459.20;;;;;;5049294;28;20025;-61
2023/10/07 11:04:19;;;;;;;8.68;5.45;;;589.60;1459.20;;;;;;5048587;28;20110;-61
2023/10/07 11:06:50;;;;;;;10.68;5.55;;;589.60;1459.20;;;;;;5049358;28;20102;-60
2023/10/07 11:09:25;;;;;;;9.90;5.68;;;589.50;1484.80;;;;;;5049282;28;20100;-60
2023/10/07 11:11:53;;;;;;;11.88;5.95;;;589.40;1459.20;;;;;;5048734;28;20048;-61
2023/10/07 11:14:21;;;;;;;7.80;5.40;;;589.40;1484.80;;;;;;5048548;28;20029;-61
2023/10/07 11:16:47;;;;;;;8.90;5.75;;;589.50;1484.80;;;;;;5048649;28;20381;-61
2023/10/07 11:19:16;;;;;;;7.38;5.63;;;589.70;1459.20;;;;;;5048865;28;20037;-61
2023/10/07 11:21:48;;;;;;;12.15;5.93;;;614.50;1510.40;;;;;;5055439;28;20045;-60
2023/10/07 11:24:26;;;;;;;10.00;6.18;;;589.60;1459.20;;;;;;5056836;28;20465;-60
2023/10/07 11:26:56;;;;;;;8.40;5.75;;;589.50;1484.80;;;;;;5067917;28;20434;-61
2023/10/07 11:29:27;;;;;;;10.48;5.45;;;589.70;1459.20;;;;;;5067849;28;20035;-61
2023/10/07 11:32:06;;;;;;;8.18;5.25;;;614.40;1459.20;;;;;;5067677;28;20434;-59
2023/10/07 11:34:37;;;;;;;9.40;5.10;;;614.50;1484.80;;;;;;5067776;28;20044;-61
2023/10/07 11:37:09;;;;;;;7.95;5.45;;;614.50;1433.60;;;;;;5067764;28;20108;-61
2023/10/07 11:39:44;;;;;;;10.63;5.60;;;614.70;1484.80;;;;;;5067543;28;20036;-61
2023/10/07 11:42:17;;;;;;;10.77;5.82;;;614.70;1484.80;;;;;;5067320;28;20050;-59
2023/10/07 11:44:47;;;;;;;11.38;6.30;;;614.50;1459.20;;;;;;5069454;28;20052;-60
2023/10/07 11:47:16;;;;;;;10.82;5.55;;;589.70;1459.20;;;;;;5068798;28;20060;-61
2023/10/07 11:49:46;;;;;;;8.30;5.30;;;589.50;1459.20;;;;;;5069006;28;20033;-60
2023/10/07 11:52:12;;;;;;;11.93;6.15;;;589.70;1459.20;;;;;;5068733;28;20509;-61
2023/10/07 11:54:39;;;;;;;10.30;5.90;;;614.40;1433.60;;;;;;5068701;28;20020;-61
2023/10/07 11:57:06;;;;;;;9.60;6.03;;;614.50;1433.60;;;;;;5068148;28;20036;-59
2023/10/07 11:59:35;;;;;;;9.70;6.10;;;614.40;1459.20;;;;;;5055894;28;20037;-61
2023/10/07 12:02:09;;;;;;;9.75;6.20;;;614.40;1459.20;;;;;;5060909;28;20128;-61
2023/10/07 12:04:40;;;;;;;9.55;5.50;;;614.70;1484.80;;;;;;5054813;28;20028;-61
2023/10/07 12:07:10;;;;;;;10.02;5.65;;;614.80;1459.20;;;;;;5048579;28;20036;-61
2023/10/07 12:09:37;;;;;;;9.70;6.15;;;614.40;1459.20;;;;;;5048655;28;20037;-61
2023/10/07 12:12:03;;;;;;;9.35;6.75;;;589.70;1459.20;;;;;;5048800;28;20029;-61
2023/10/07 12:14:31;;;;;;;7.70;5.65;;;614.40;1459.20;;;;;;5050754;28;20066;-61
2023/10/07 12:16:58;;;;;;;9.63;6.15;;;614.50;1459.20;;;;;;5057841;28;20041;-61
2023/10/07 12:19:27;;;;;;;7.35;5.28;;;614.50;1433.60;;;;;;5057818;28;20024;-60
2023/10/07 12:21:53;;;;;;;10.10;5.70;;;614.60;1459.20;;;;;;5058286;28;20055;-59
2023/10/07 12:24:20;;;;;;;8.30;6.00;;;614.70;1484.80;;;;;;5055886;28;20063;-60
2023/10/07 12:26:52;;;;;;;10.68;6.00;;;614.80;1484.80;;;;;;5056368;28;20020;-60
2023/10/07 12:29:18;;;;;;;8.25;5.93;;;614.90;1484.80;;;;;;5056409;28;20017;-61
2023/10/07 12:31:45;;;;;;;10.57;5.95;;;614.90;1484.80;;;;;;5048058;28;20123;-61
2023/10/07 12:34:15;;;;;;;7.93;4.88;;;615.00;1459.20;;;;;;5048454;28;20091;-61
2023/10/07 12:36:41;;;;;;;9.18;6.15;;;615.10;1459.20;;;;;;5047876;28;20120;-61
2023/10/07 12:39:10;;;;;;;9.45;5.35;;;615.20;1459.20;;;;;;5056400;28;20099;-61
2023/10/07 12:41:42;;;;;;;8.32;5.30;;;615.20;1433.60;;;;;;5068263;28;20044;-60
2023/10/07 12:44:08;;;;;;;9.30;5.47;;;615.00;1433.60;;;;;;5067957;28;20028;-61
2023/10/07 12:46:43;;;;;;;11.43;5.95;;;615.20;1510.40;;;;;;5067919;28;20016;-61
2023/10/07 12:49:10;;;;;;;8.32;5.72;;;615.30;1536.00;;;;;;5067854;28;20037;-60
2023/10/07 12:51:42;;;;;;;6.55;5.10;;;615.30;1510.40;;;;;;5068249;28;20047;-60
2023/10/07 12:54:09;;;;;;;9.38;5.18;;;615.30;1536.00;;;;;;5067778;28;20036;-60
2023/10/07 12:56:36;;;;;;;8.57;5.15;;;;;;;;;;5064573;28;20036;-61
2023/10/07 12:59:07;;;;;;;9.20;5.53;;;;;;;;;;5068034;28;20021;-61
2023/10/07 13:01:33;;;;;;;6.43;4.85;;;;;;;;;;5065574;28;20034;-59
2023/10/07 13:03:59;;;;;;;9.13;6.25;;;;;;;;;;5053417;28;20103;-60
2023/10/07 13:06:26;;;;;;;11.15;5.85;;;;;;;;;;5058255;28;20104;-60
2023/10/07 13:08:53;;;;;;;6.63;4.68;;;;;;;;;;5056987;28;20028;-59
2023/10/07 13:11:21;;;;;;;5.78;4.70;;;;;;;;;;5053299;28;20035;-60